createdAt,value
2024-03-12T00:00:30.035Z,8.73
2024-03-12T00:02:58.125Z,8.76
2024-03-12T00:05:25.704Z,8.74
2024-03-12T00:07:53.335Z,8.69
2024-03-12T00:10:21.326Z,8.63
2024-03-12T00:12:51.604Z,8.63
2024-03-12T00:15:27.754Z,8.54
2024-03-12T00:17:56.244Z,8.60
2024-03-12T00:20:36.639Z,8.54
2024-03-12T00:23:07.996Z,8.54
2024-03-12T00:25:36.117Z,8.47
2024-03-12T00:28:06.859Z,8.49
2024-03-12T00:30:35.157Z,8.46
2024-03-12T00:33:02.917Z,8.44
2024-03-12T00:35:33.832Z,8.36
2024-03-12T00:38:01.508Z,8.37
2024-03-12T00:40:37.898Z,8.38
2024-03-12T00:43:09.920Z,8.40
2024-03-12T00:45:40.938Z,8.38
2024-03-12T00:48:19.779Z,8.30
2024-03-12T00:50:47.500Z,8.35
2024-03-12T00:53:16.120Z,8.32
2024-03-12T00:55:48.513Z,8.26
2024-03-12T00:58:17.224Z,8.25
2024-03-12T01:00:46.956Z,8.28
2024-03-12T01:03:14.708Z,8.24
2024-03-12T01:05:44.045Z,8.21
2024-03-12T01:08:13.190Z,8.19
2024-03-12T01:10:41.208Z,8.16
2024-03-12T01:13:11.469Z,8.15
2024-03-12T01:15:41.086Z,8.14
2024-03-12T01:18:10.104Z,8.11
2024-03-12T01:20:38.168Z,8.08
2024-03-12T01:23:07.133Z,8.02
2024-03-12T01:25:37.467Z,7.98
2024-03-12T01:28:07.566Z,7.93
2024-03-12T01:30:37.889Z,7.94
2024-03-12T01:33:09.336Z,7.87
2024-03-12T01:35:40.496Z,7.85
2024-03-12T01:38:11.327Z,7.74
2024-03-12T01:40:40.794Z,7.73
2024-03-12T01:43:09.336Z,7.66
2024-03-12T01:45:38.084Z,7.66
2024-03-12T01:48:09.645Z,7.64
2024-03-12T01:50:40.458Z,7.62
2024-03-12T01:53:09.726Z,7.62
2024-03-12T01:55:41.428Z,7.63
2024-03-12T01:58:16.250Z,7.63
2024-03-12T02:00:45.566Z,7.59
2024-03-12T02:03:13.734Z,7.61
2024-03-12T02:05:42.645Z,7.59
2024-03-12T02:08:11.399Z,7.59
2024-03-12T02:10:39.589Z,7.59
2024-03-12T02:13:07.499Z,7.57
2024-03-12T02:15:35.688Z,7.48
2024-03-12T02:18:04.106Z,7.51
2024-03-12T02:20:31.700Z,7.57
2024-03-12T02:23:00.491Z,7.54
2024-03-12T02:25:28.551Z,7.56
2024-03-12T02:27:57.792Z,7.60
2024-03-12T02:30:25.563Z,7.61
2024-03-12T02:32:53.933Z,7.59
2024-03-12T02:35:21.827Z,7.62
2024-03-12T02:37:49.397Z,7.57
2024-03-12T02:40:19.585Z,7.59
2024-03-12T02:42:47.480Z,7.52
2024-03-12T02:45:22.155Z,7.62
2024-03-12T02:47:50.497Z,7.59
2024-03-12T02:50:19.414Z,7.61
2024-03-12T02:52:47.264Z,7.54
2024-03-12T02:55:15.845Z,7.58
2024-03-12T02:57:43.595Z,7.50
2024-03-12T03:00:16.199Z,7.45
2024-03-12T03:02:45.597Z,7.45
2024-03-12T03:05:14.493Z,7.43
2024-03-12T03:07:43.328Z,7.43
2024-03-12T03:10:13.235Z,7.47
2024-03-12T03:12:42.555Z,7.44
2024-03-12T03:15:13.847Z,7.45
2024-03-12T03:17:47.503Z,7.39
2024-03-12T03:20:16.347Z,7.40
2024-03-12T03:22:44.856Z,7.41
2024-03-12T03:25:13.886Z,7.41
2024-03-12T03:27:41.769Z,7.38
2024-03-12T03:30:13.666Z,7.40
2024-03-12T03:32:41.270Z,7.38
2024-03-12T03:35:09.289Z,7.42
2024-03-12T03:37:37.016Z,7.41
2024-03-12T03:40:05.979Z,7.37
2024-03-12T03:42:33.998Z,7.37
2024-03-12T03:45:01.656Z,7.30
2024-03-12T03:47:35.321Z,7.27
2024-03-12T03:50:04.467Z,7.28
2024-03-12T03:52:32.128Z,7.27
2024-03-12T03:54:59.737Z,7.26
2024-03-12T03:57:27.661Z,7.14
2024-03-12T03:59:55.220Z,7.15
2024-03-12T04:02:22.778Z,7.11
2024-03-12T04:04:50.776Z,7.13
2024-03-12T04:07:20.849Z,7.04
2024-03-12T04:09:48.639Z,6.99
2024-03-12T04:12:16.580Z,7.03
2024-03-12T04:14:44.161Z,6.99
2024-03-12T04:17:11.677Z,6.99
2024-03-12T04:19:39.540Z,7.00
2024-03-12T04:22:07.377Z,7.03
2024-03-12T04:24:35.527Z,6.92
2024-03-12T04:27:03.498Z,6.95
2024-03-12T04:29:30.992Z,6.89
2024-03-12T04:31:58.491Z,6.81
2024-03-12T04:34:31.122Z,6.81
2024-03-12T04:36:59.818Z,6.83
2024-03-12T04:39:33.656Z,6.83
2024-03-12T04:42:03.501Z,6.83
2024-03-12T04:44:31.369Z,6.79
2024-03-12T04:46:59.868Z,6.84
2024-03-12T04:49:28.495Z,6.77
2024-03-12T04:51:56.454Z,6.73
2024-03-12T04:54:24.130Z,6.76
2024-03-12T04:56:52.175Z,6.76
2024-03-12T04:59:20.223Z,6.73
2024-03-12T05:01:49.884Z,6.75
2024-03-12T05:04:22.540Z,6.74
2024-03-12T05:06:51.933Z,6.73
2024-03-12T05:09:19.859Z,6.74
2024-03-12T05:11:48.981Z,6.72
2024-03-12T05:14:17.086Z,6.73
2024-03-12T05:16:44.672Z,6.74
2024-03-12T05:19:13.400Z,6.72
2024-03-12T05:21:44.123Z,6.73
2024-03-12T05:24:11.735Z,6.69
2024-03-12T05:26:45.726Z,6.71
2024-03-12T05:29:13.682Z,6.70
2024-03-12T05:31:41.754Z,6.70
2024-03-12T05:34:17.647Z,6.71
2024-03-12T05:37:03.578Z,6.73
2024-03-12T05:39:49.130Z,6.76
2024-03-12T05:42:35.814Z,6.70
2024-03-12T05:45:22.344Z,6.71
2024-03-12T05:48:09.079Z,6.73
2024-03-12T05:50:42.243Z,6.80
2024-03-12T05:53:10.668Z,7.64
2024-03-12T05:55:39.357Z,9.66
2024-03-12T05:58:06.947Z,8.57
2024-03-12T06:00:34.969Z,8.00
2024-03-12T06:03:02.904Z,7.69
2024-03-12T06:05:30.434Z,7.49
2024-03-12T06:07:57.985Z,7.33
2024-03-12T06:10:25.820Z,7.26
2024-03-12T06:12:53.423Z,7.17
2024-03-12T06:15:21.079Z,7.14
2024-03-12T06:17:48.980Z,7.15
2024-03-12T06:20:17.117Z,7.05
2024-03-12T06:22:44.965Z,7.00
2024-03-12T06:25:13.749Z,6.96
2024-03-12T06:27:42.939Z,6.96
2024-03-12T06:30:10.888Z,6.96
2024-03-12T06:32:38.675Z,6.98
2024-03-12T06:35:06.584Z,6.97
2024-03-12T06:37:34.272Z,6.97
2024-03-12T06:40:05.690Z,6.92
2024-03-12T06:42:33.271Z,6.95
2024-03-12T06:45:02.556Z,6.95
2024-03-12T06:47:33.428Z,6.95
2024-03-12T06:50:01.049Z,6.94
2024-03-12T06:52:28.627Z,6.98
2024-03-12T06:54:56.545Z,7.05
2024-03-12T06:57:24.268Z,7.03
2024-03-12T06:59:52.654Z,7.09
2024-03-12T07:02:21.896Z,7.16
2024-03-12T07:04:49.926Z,7.10
2024-03-12T07:07:21.146Z,7.08
2024-03-12T07:09:50.647Z,7.12
2024-03-12T07:12:19.840Z,7.11
2024-03-12T07:14:56.271Z,7.13
2024-03-12T07:17:24.626Z,7.12
2024-03-12T07:19:52.455Z,7.12
2024-03-12T07:22:20.071Z,7.15
2024-03-12T07:24:48.687Z,7.22
2024-03-12T07:27:16.363Z,7.23
2024-03-12T07:29:44.897Z,7.26
2024-03-12T07:32:14.554Z,7.27
2024-03-12T07:34:43.501Z,7.31
2024-03-12T07:37:11.934Z,7.34
2024-03-12T07:39:39.931Z,7.38
2024-03-12T07:42:20.108Z,7.37
2024-03-12T07:44:49.322Z,7.36
2024-03-12T07:47:17.026Z,7.34
2024-03-12T07:49:47.025Z,7.31
2024-03-12T07:52:15.209Z,7.44
2024-03-12T07:54:43.440Z,7.47
2024-03-12T07:57:11.037Z,7.42
2024-03-12T07:59:39.000Z,7.39
2024-03-12T08:02:12.939Z,7.39
2024-03-12T08:04:43.761Z,7.41
2024-03-12T08:07:15.332Z,7.50
2024-03-12T08:09:46.174Z,7.55
2024-03-12T08:12:17.523Z,7.61
2024-03-12T08:14:46.094Z,7.60
2024-03-12T08:17:13.806Z,7.62
2024-03-12T08:19:43.658Z,7.73
2024-03-12T08:22:12.224Z,7.75
2024-03-12T08:24:40.565Z,7.81
2024-03-12T08:27:08.490Z,7.84
2024-03-12T08:29:37.078Z,7.85
2024-03-12T08:32:05.082Z,7.86
2024-03-12T08:34:32.756Z,7.87
2024-03-12T08:37:01.481Z,7.95
2024-03-12T08:39:29.928Z,7.92
2024-03-12T08:41:57.649Z,7.96
2024-03-12T08:44:25.537Z,8.01
2024-03-12T08:46:53.126Z,7.98
2024-03-12T08:49:21.793Z,8.00
2024-03-12T08:51:49.740Z,8.05
2024-03-12T08:54:18.084Z,8.06
2024-03-12T08:56:45.618Z,8.06
2024-03-12T08:59:15.235Z,8.23
2024-03-12T09:01:45.097Z,8.27
2024-03-12T09:04:14.463Z,8.33
2024-03-12T09:06:42.490Z,8.35
2024-03-12T09:09:10.260Z,8.36
2024-03-12T09:11:40.188Z,8.40
2024-03-12T09:14:08.231Z,8.54
2024-03-12T09:16:35.922Z,8.57
2024-03-12T09:19:06.156Z,8.52
2024-03-12T09:21:36.673Z,8.68
2024-03-12T09:24:06.481Z,8.77
2024-03-12T09:26:34.894Z,8.88
2024-03-12T09:29:04.940Z,8.91
2024-03-12T09:31:33.999Z,9.03
2024-03-12T09:34:02.345Z,9.03
2024-03-12T09:36:29.936Z,9.07
2024-03-12T09:38:57.808Z,9.05
2024-03-12T09:41:26.939Z,9.03
2024-03-12T09:43:55.710Z,9.04
2024-03-12T09:46:24.230Z,9.09
2024-03-12T09:48:52.888Z,9.16
2024-03-12T09:51:22.543Z,9.19
2024-03-12T09:53:50.953Z,9.27
2024-03-12T09:56:19.552Z,9.23
2024-03-12T09:58:49.509Z,9.27
2024-03-12T10:01:17.976Z,9.26
2024-03-12T10:03:47.759Z,9.22
2024-03-12T10:06:18.037Z,9.22
2024-03-12T10:08:46.010Z,9.25
2024-03-12T10:11:20.744Z,9.17
2024-03-12T10:13:59.971Z,9.18
2024-03-12T10:16:29.958Z,9.22
2024-03-12T10:19:27.048Z,9.26
2024-03-12T10:21:54.658Z,9.24
2024-03-12T10:24:26.640Z,9.21
2024-03-12T10:27:04.475Z,9.24
2024-03-12T10:29:39.330Z,9.22
2024-03-12T10:32:23.344Z,9.21
2024-03-12T10:34:53.329Z,9.19
2024-03-12T10:37:36.307Z,9.12
2024-03-12T10:40:23.469Z,9.08
2024-03-12T10:42:59.185Z,9.19
2024-03-12T10:45:30.043Z,9.14
2024-03-12T10:47:58.043Z,9.15
2024-03-12T10:50:27.136Z,9.18
2024-03-12T10:52:58.572Z,9.17
2024-03-12T10:55:26.226Z,9.15
2024-03-12T10:57:55.940Z,9.26
2024-03-12T11:00:27.356Z,9.30
2024-03-12T11:02:55.768Z,9.35
2024-03-12T11:05:26.380Z,9.35
2024-03-12T11:07:59.261Z,9.30
2024-03-12T11:10:34.230Z,9.34
2024-03-12T11:13:03.324Z,9.29
2024-03-12T11:15:32.822Z,9.24
2024-03-12T11:18:00.844Z,9.31
2024-03-12T11:20:30.017Z,9.30
2024-03-12T11:23:01.399Z,9.31
2024-03-12T11:25:34.032Z,9.34
2024-03-12T11:28:22.052Z,9.34
2024-03-12T11:31:05.682Z,9.41
2024-03-12T11:33:40.129Z,9.40
2024-03-12T11:36:22.737Z,9.48
2024-03-12T11:38:52.829Z,9.44
2024-03-12T11:41:21.566Z,9.49
2024-03-12T11:43:50.074Z,9.51
2024-03-12T11:46:45.489Z,9.53
2024-03-12T11:49:35.117Z,9.61
2024-03-12T11:52:02.838Z,9.73
2024-03-12T11:54:41.213Z,9.76
2024-03-12T11:57:22.411Z,9.80
2024-03-12T11:59:51.492Z,9.85
2024-03-12T12:02:22.386Z,9.82
2024-03-12T12:04:55.348Z,9.79
2024-03-12T12:07:24.084Z,9.77
2024-03-12T12:09:53.207Z,9.78
2024-03-12T12:12:21.796Z,9.66
2024-03-12T12:14:49.735Z,9.64
2024-03-12T12:17:23.172Z,9.63
2024-03-12T12:20:15.605Z,9.58
2024-03-12T12:22:47.158Z,9.57
2024-03-12T12:25:19.824Z,9.58
2024-03-12T12:27:48.361Z,9.51
2024-03-12T12:30:20.652Z,9.49
2024-03-12T12:32:53.201Z,9.45
2024-03-12T12:35:21.881Z,9.46
2024-03-12T12:37:51.763Z,9.50
2024-03-12T12:40:21.796Z,9.50
2024-03-12T12:42:52.952Z,9.51
2024-03-12T12:45:20.524Z,9.54
2024-03-12T12:47:51.157Z,9.53
2024-03-12T12:50:33.326Z,9.56
2024-03-12T12:53:02.754Z,9.62
2024-03-12T12:55:34.111Z,9.65
2024-03-12T12:58:03.622Z,9.69
2024-03-12T13:00:37.550Z,9.71
2024-03-12T13:03:17.762Z,9.69
2024-03-12T13:05:48.725Z,9.71
2024-03-12T13:08:30.697Z,9.72
2024-03-12T13:11:06.677Z,9.63
2024-03-12T13:13:36.260Z,9.64
2024-03-12T13:16:14.767Z,9.63
2024-03-12T13:18:47.224Z,9.57
2024-03-12T13:21:16.731Z,9.62
2024-03-12T13:23:48.419Z,9.59
2024-03-12T13:26:18.539Z,9.59
2024-03-12T13:28:48.358Z,9.62
2024-03-12T13:31:16.647Z,9.63
2024-03-12T13:33:45.181Z,9.57
2024-03-12T13:36:12.952Z,9.55
2024-03-12T13:38:41.843Z,9.53
2024-03-12T13:41:14.289Z,9.53
2024-03-12T13:43:43.633Z,9.50
2024-03-12T13:46:12.518Z,9.46
2024-03-12T13:48:41.863Z,9.47
2024-03-12T13:51:11.152Z,9.47
2024-03-12T13:53:40.072Z,9.43
2024-03-12T13:56:11.293Z,9.39
2024-03-12T13:58:41.812Z,9.44
2024-03-12T14:01:13.876Z,9.38
2024-03-12T14:03:43.697Z,9.40
2024-03-12T14:06:11.329Z,9.39
2024-03-12T14:08:38.946Z,9.36
2024-03-12T14:11:08.717Z,9.38
2024-03-12T14:13:36.700Z,9.37
2024-03-12T14:16:06.534Z,9.29
2024-03-12T14:18:34.539Z,9.35
2024-03-12T14:21:02.233Z,9.32
2024-03-12T14:23:30.187Z,9.30
2024-03-12T14:25:58.292Z,9.32
2024-03-12T14:28:27.545Z,9.30
2024-03-12T14:30:56.531Z,9.32
2024-03-12T14:33:25.494Z,9.27
2024-03-12T14:35:55.288Z,9.24
2024-03-12T14:38:22.924Z,9.26
2024-03-12T14:40:51.016Z,9.24
2024-03-12T14:43:19.252Z,9.20
2024-03-12T14:45:47.917Z,9.12
2024-03-12T14:48:15.971Z,9.17
2024-03-12T14:50:43.818Z,9.18
2024-03-12T14:53:11.430Z,9.14
2024-03-12T14:55:40.719Z,9.12
2024-03-12T14:58:09.017Z,9.11
2024-03-12T15:00:40.682Z,9.06
2024-03-12T15:03:08.802Z,9.08
2024-03-12T15:05:37.018Z,9.03
2024-03-12T15:08:11.974Z,9.04
2024-03-12T15:10:39.985Z,9.04
2024-03-12T15:13:07.835Z,8.99
2024-03-12T15:15:36.532Z,8.96
2024-03-12T15:18:05.906Z,8.96
2024-03-12T15:20:33.611Z,8.94
2024-03-12T15:23:02.908Z,8.87
2024-03-12T15:25:30.992Z,8.86
2024-03-12T15:27:58.668Z,8.82
2024-03-12T15:30:26.963Z,8.88
2024-03-12T15:32:54.864Z,8.88
2024-03-12T15:35:22.513Z,8.84
2024-03-12T15:37:50.133Z,8.81
2024-03-12T15:40:20.821Z,8.79
2024-03-12T15:42:49.314Z,8.81
2024-03-12T15:45:17.402Z,8.77
2024-03-12T15:47:45.702Z,8.82
2024-03-12T15:50:13.924Z,8.80
2024-03-12T15:52:41.794Z,8.77
2024-03-12T15:55:11.753Z,8.76
2024-03-12T15:57:45.850Z,8.73
2024-03-12T16:00:15.410Z,8.72
2024-03-12T16:02:44.580Z,8.72
2024-03-12T16:05:12.375Z,8.73
2024-03-12T16:07:42.996Z,8.75
2024-03-12T16:10:11.371Z,8.72
2024-03-12T16:12:42.939Z,8.70
2024-03-12T16:15:14.769Z,8.71
2024-03-12T16:17:43.893Z,8.67
2024-03-12T16:20:15.773Z,8.67
2024-03-12T16:22:44.619Z,8.68
2024-03-12T16:25:13.384Z,8.73
2024-03-12T16:27:44.542Z,8.66
2024-03-12T16:30:15.499Z,8.67
2024-03-12T16:32:44.793Z,8.65
2024-03-12T16:35:16.508Z,8.59
2024-03-12T16:37:45.298Z,8.53
2024-03-12T16:40:13.859Z,8.52
2024-03-12T16:42:43.493Z,8.52
2024-03-12T16:45:11.470Z,8.52
2024-03-12T16:47:39.642Z,8.52
2024-03-12T16:50:09.617Z,8.50
2024-03-12T16:52:38.782Z,8.49
2024-03-12T16:55:08.435Z,8.50
2024-03-12T16:57:36.749Z,8.50
2024-03-12T17:00:06.857Z,8.45
2024-03-12T17:02:43.600Z,8.41
2024-03-12T17:05:23.532Z,8.42
2024-03-12T17:07:54.399Z,10.62
2024-03-12T17:10:25.087Z,12.43
2024-03-12T17:12:53.521Z,13.58
2024-03-12T17:15:22.423Z,14.13
2024-03-12T17:17:50.759Z,14.65
2024-03-12T17:20:18.763Z,14.98
2024-03-12T17:22:47.871Z,15.36
2024-03-12T17:25:18.186Z,15.66
2024-03-12T17:27:48.841Z,15.53
2024-03-12T17:30:16.803Z,13.74
2024-03-12T17:32:46.962Z,12.56
2024-03-12T17:35:16.139Z,11.77
2024-03-12T17:37:45.326Z,11.17
2024-03-12T17:40:16.997Z,10.70
2024-03-12T17:42:46.427Z,10.38
2024-03-12T17:45:16.788Z,10.04
2024-03-12T17:47:49.357Z,9.77
2024-03-12T17:50:21.570Z,9.66
2024-03-12T17:52:54.959Z,9.48
2024-03-12T17:55:23.107Z,9.37
2024-03-12T17:57:52.272Z,9.26
2024-03-12T18:00:22.433Z,9.12
2024-03-12T18:02:51.069Z,9.06
2024-03-12T18:05:21.445Z,9.06
2024-03-12T18:07:53.489Z,9.02
2024-03-12T18:10:26.182Z,8.98
2024-03-12T18:12:54.287Z,8.98
2024-03-12T18:15:24.651Z,9.01
2024-03-12T18:17:53.529Z,8.90
2024-03-12T18:20:25.565Z,8.89
2024-03-12T18:22:54.444Z,8.84
2024-03-12T18:25:22.611Z,8.81
2024-03-12T18:27:54.962Z,8.78
2024-03-12T18:30:22.985Z,8.81
2024-03-12T18:32:50.824Z,8.77
2024-03-12T18:35:20.235Z,8.80
2024-03-12T18:37:48.294Z,8.75
2024-03-12T18:40:19.864Z,8.70
2024-03-12T18:42:49.091Z,8.72
2024-03-12T18:45:20.715Z,8.68
2024-03-12T18:47:52.256Z,8.67
2024-03-12T18:50:22.000Z,8.63
2024-03-12T18:52:50.393Z,8.63
2024-03-12T18:55:19.368Z,8.61
2024-03-12T18:57:47.445Z,8.59
2024-03-12T19:00:20.043Z,8.56
2024-03-12T19:02:49.062Z,8.59
2024-03-12T19:05:21.550Z,8.58
2024-03-12T19:07:51.627Z,11.27
2024-03-12T19:10:21.157Z,12.93
2024-03-12T19:12:49.295Z,13.77
2024-03-12T19:15:22.096Z,12.43
2024-03-12T19:17:52.208Z,11.46
2024-03-12T19:20:21.367Z,10.90
2024-03-12T19:22:57.888Z,10.48
2024-03-12T19:25:27.382Z,10.10
2024-03-12T19:27:55.344Z,9.79
2024-03-12T19:30:25.767Z,9.57
2024-03-12T19:32:54.586Z,9.32
2024-03-12T19:35:22.664Z,9.18
2024-03-12T19:37:50.968Z,8.99
2024-03-12T19:40:22.548Z,8.89
2024-03-12T19:42:51.198Z,8.85
2024-03-12T19:45:21.109Z,8.81
2024-03-12T19:47:50.360Z,8.74
2024-03-12T19:50:21.543Z,8.64
2024-03-12T19:52:49.957Z,8.61
2024-03-12T19:55:21.610Z,8.53
2024-03-12T19:57:56.926Z,8.45
2024-03-12T20:00:26.803Z,8.44
2024-03-12T20:02:57.969Z,8.47
2024-03-12T20:05:28.771Z,8.38
2024-03-12T20:07:57.068Z,8.39
2024-03-12T20:10:26.690Z,8.34
2024-03-12T20:12:56.571Z,8.30
2024-03-12T20:15:25.087Z,8.35
2024-03-12T20:17:53.023Z,8.31
2024-03-12T20:20:23.119Z,8.33
2024-03-12T20:22:54.666Z,8.31
2024-03-12T20:25:23.450Z,8.33
2024-03-12T20:27:55.531Z,8.36
2024-03-12T20:30:28.873Z,8.30
2024-03-12T20:32:58.054Z,8.32
2024-03-12T20:35:25.723Z,8.27
2024-03-12T20:37:53.556Z,8.29
2024-03-12T20:40:23.762Z,8.34
2024-03-12T20:42:51.474Z,8.26
2024-03-12T20:45:22.726Z,8.24
2024-03-12T20:47:51.091Z,8.19
2024-03-12T20:50:20.371Z,8.21
2024-03-12T20:52:48.628Z,8.24
2024-03-12T20:55:16.775Z,8.22
2024-03-12T20:57:48.222Z,8.18
2024-03-12T21:00:18.605Z,8.25
2024-03-12T21:02:48.935Z,8.28
2024-03-12T21:05:19.148Z,8.26
2024-03-12T21:07:46.856Z,8.28
2024-03-12T21:10:14.643Z,8.27
2024-03-12T21:12:49.867Z,8.22
2024-03-12T21:15:19.441Z,8.25
2024-03-12T21:17:48.074Z,8.27
2024-03-12T21:20:33.994Z,8.25
2024-03-12T21:23:05.219Z,8.23
2024-03-12T21:25:34.537Z,8.26
2024-03-12T21:28:02.750Z,8.29
2024-03-12T21:30:30.360Z,8.28
2024-03-12T21:32:58.565Z,8.30
2024-03-12T21:35:26.482Z,8.30
2024-03-12T21:37:54.083Z,8.29
2024-03-12T21:40:22.573Z,8.28
2024-03-12T21:42:51.633Z,8.30
2024-03-12T21:45:20.537Z,8.21
2024-03-12T21:47:49.245Z,8.27
2024-03-12T21:50:17.794Z,8.24
2024-03-12T21:52:46.460Z,8.26
2024-03-12T21:55:14.788Z,8.29
2024-03-12T21:57:44.786Z,8.26
2024-03-12T22:00:20.407Z,8.20
2024-03-12T22:02:50.207Z,8.23
2024-03-12T22:05:21.212Z,8.19
2024-03-12T22:07:52.264Z,8.20
2024-03-12T22:10:20.140Z,8.25
2024-03-12T22:12:48.328Z,8.23
2024-03-12T22:15:16.907Z,8.19
2024-03-12T22:17:45.995Z,8.22
2024-03-12T22:20:19.550Z,8.25
2024-03-12T22:22:48.878Z,8.24
2024-03-12T22:25:17.749Z,8.21
2024-03-12T22:27:47.047Z,8.23
2024-03-12T22:30:17.757Z,8.22
2024-03-12T22:32:46.479Z,8.24
2024-03-12T22:35:15.032Z,8.25
2024-03-12T22:37:44.897Z,8.24
2024-03-12T22:40:13.896Z,8.28
2024-03-12T22:42:42.177Z,8.28
2024-03-12T22:45:12.768Z,8.25
2024-03-12T22:47:41.149Z,8.25
2024-03-12T22:50:09.784Z,8.22
2024-03-12T22:52:37.849Z,8.20
2024-03-12T22:55:07.346Z,8.22
2024-03-12T22:57:40.031Z,8.14
2024-03-12T23:00:32.330Z,8.19
2024-03-12T23:03:02.387Z,8.18
2024-03-12T23:05:36.100Z,8.20
2024-03-12T23:08:08.025Z,8.20
2024-03-12T23:10:45.056Z,8.20
2024-03-12T23:13:15.022Z,8.21
2024-03-12T23:15:44.237Z,8.17
2024-03-12T23:18:13.032Z,8.24
2024-03-12T23:20:41.660Z,8.21
2024-03-12T23:23:09.809Z,8.23
2024-03-12T23:25:37.645Z,8.26
2024-03-12T23:28:05.735Z,8.19
2024-03-12T23:30:37.258Z,8.20
2024-03-12T23:33:05.117Z,8.19
2024-03-12T23:35:35.748Z,8.19
2024-03-12T23:38:03.914Z,8.13
2024-03-12T23:40:31.665Z,8.14
2024-03-12T23:42:59.579Z,8.11
2024-03-12T23:45:27.747Z,8.13
2024-03-12T23:47:55.665Z,8.10
2024-03-12T23:50:23.550Z,8.09
2024-03-12T23:52:51.806Z,8.07
2024-03-12T23:55:20.492Z,8.12
2024-03-12T23:57:49.871Z,8.08
